Time;durP1;ratioP1;P1;durP2;ratioP2;P2;SDS_P1;SDS_P2;PMS_P1;PMS_P2;Temp;Humidity;BMP_temperature;BMP_pressure;BME280_temperature;BME280_humidity;BME280_pressure;Samples;Min_cycle;Max_cycle;Signal;HPM_P1;HPM_P2
2022/01/24 00:00:16;;;;;;;11.23;8.43;;;;;;;;;;5055220;28;20240;-64
2022/01/24 00:02:43;;;;;;;10.20;8.83;;;;;;;;;;5054927;28;20524;-64
2022/01/24 00:05:10;;;;;;;9.53;8.23;;;;;;;;;;5054896;28;20496;-64
2022/01/24 00:07:36;;;;;;;9.97;8.97;;;;;;;;;;5055099;28;20835;-65
2022/01/24 00:10:05;;;;;;;9.93;8.90;;;;;;;;;;5054878;28;20562;-64
2022/01/24 00:12:42;;;;;;;9.90;8.00;;;;;;;;;;5054891;28;20493;-65
2022/01/24 00:17:42;;;;;;;10.73;8.23;;;;;;;;;;5054970;28;20228;-64
2022/01/24 00:28:05;;;;;;;9.90;8.90;;;;;;;;;;5054661;28;20957;-65
2022/01/24 00:30:32;;;;;;;8.87;7.50;;;;;;;;;;5054617;28;20478;-64
2022/01/24 00:32:58;;;;;;;8.73;7.83;;;;;;;;;;5054494;28;20279;-64
2022/01/24 00:35:25;;;;;;;9.77;8.70;;;;;;;;;;5054796;28;20438;-65
2022/01/24 00:37:51;;;;;;;9.40;8.40;;;;;;;;;;5052699;28;20427;-62
2022/01/24 00:40:17;;;;;;;9.47;8.53;;;;;;;;;;5036327;28;20481;-63
2022/01/24 00:42:58;;;;;;;9.73;8.30;;;;;;;;;;5054381;28;20434;-63
2022/01/24 00:45:34;;;;;;;9.23;8.20;;;;;;;;;;5054263;28;20442;-65
2022/01/24 00:49:08;;;;;;;9.63;8.10;;;;;;;;;;5054273;28;20431;-60
2022/01/24 00:53:50;;;;;;;9.17;8.27;;;;;;;;;;5054349;28;20426;-61
2022/01/24 00:56:17;;;;;;;10.83;8.60;;;;;;;;;;5054207;28;20825;-62
2022/01/24 00:58:43;;;;;;;8.80;7.87;;;;;;;;;;5054073;28;20449;-62
2022/01/24 01:01:09;;;;;;;8.83;7.97;;;;;;;;;;5053846;28;20441;-62
2022/01/24 01:03:36;;;;;;;9.17;8.27;;;;;;;;;;5053186;28;20507;-63
2022/01/24 01:06:07;;;;;;;9.10;8.20;;;;;;;;;;5053403;28;20435;-63
2022/01/24 01:19:35;;;;;;;9.70;8.70;;;;;;;;;;5053799;28;20468;-62
2022/01/24 01:22:01;;;;;;;8.97;7.90;;;;;;;;;;5053657;28;20602;-63
2022/01/24 01:24:29;;;;;;;12.03;9.57;;;;;;;;;;5053503;28;20933;-63
2022/01/24 01:27:16;;;;;;;11.73;8.70;;;;;;;;;;5053565;28;20205;-63
2022/01/24 01:30:06;;;;;;;9.80;8.80;;;;;;;;;;5053538;28;20594;-63
2022/01/24 01:52:16;;;;;;;9.67;8.23;;;;;;;;;;5053291;28;20421;-64
2022/01/24 01:52:22;;;;;;;9.90;8.90;;;;;;;;;;5053059;28;20447;-63
2022/01/24 01:54:18;;;;;;;9.73;8.43;;;;;;;;;;5052814;28;20481;-63
2022/01/24 01:56:44;;;;;;;11.70;8.70;;;;;;;;;;5053037;28;20477;-63
2022/01/24 01:59:10;;;;;;;10.37;7.53;;;;;;;;;;5052825;28;20442;-64
2022/01/24 02:01:36;;;;;;;9.77;8.80;;;;;;;;;;5052878;28;20575;-63
2022/01/24 02:04:05;;;;;;;9.17;8.27;;;;;;;;;;5052257;28;20251;-63
2022/01/24 02:06:32;;;;;;;10.87;8.50;;;;;;;;;;5052219;28;20664;-63
2022/01/24 02:08:59;;;;;;;11.53;8.90;;;;;;;;;;5052929;28;20445;-63
2022/01/24 02:11:25;;;;;;;10.20;9.10;;;;;;;;;;5052652;28;20482;-62
2022/01/24 02:13:51;;;;;;;8.77;7.87;;;;;;;;;;5052205;28;20442;-62
2022/01/24 02:16:37;;;;;;;9.60;8.70;;;;;;;;;;5052757;28;20668;-63
2022/01/24 02:19:24;;;;;;;8.93;8.10;;;;;;;;;;5052411;28;20817;-63
2022/01/24 02:22:17;;;;;;;10.53;8.50;;;;;;;;;;5052583;28;20465;-61
2022/01/24 02:24:53;;;;;;;10.20;8.83;;;;;;;;;;5052451;28;20435;-62
2022/01/24 02:27:22;;;;;;;8.70;7.90;;;;;;;;;;5052404;28;20860;-63
2022/01/24 02:29:55;;;;;;;9.20;7.70;;;;;;;;;;5052489;28;20474;-62
2022/01/24 02:32:21;;;;;;;11.67;9.23;;;;;;;;;;5052386;28;20970;-62
2022/01/24 02:34:49;;;;;;;9.07;8.10;;;;;;;;;;5052403;28;20869;-63
2022/01/24 02:37:19;;;;;;;9.80;8.80;;;;;;;;;;5052334;28;20435;-62
2022/01/24 02:40:01;;;;;;;8.50;7.60;;;;;;;;;;5052393;28;20798;-62
2022/01/24 02:51:14;;;;;;;6.97;6.37;;;;;;;;;;5052237;28;20595;-62
2022/01/24 02:53:41;;;;;;;7.63;6.87;;;;;;;;;;5052145;28;20439;-62
2022/01/24 02:56:07;;;;;;;8.10;6.90;;;;;;;;;;5052106;28;20451;-63
2022/01/24 02:58:34;;;;;;;8.27;7.40;;;;;;;;;;5052123;28;20423;-63
2022/01/24 03:01:00;;;;;;;8.10;7.30;;;;;;;;;;5052035;28;20717;-63
2022/01/24 03:03:26;;;;;;;8.23;6.93;;;;;;;;;;5051960;28;20833;-63
2022/01/24 03:05:53;;;;;;;8.43;7.53;;;;;;;;;;5051983;28;20533;-62
2022/01/24 03:08:21;;;;;;;7.73;6.70;;;;;;;;;;5051909;28;20464;-62
2022/01/24 03:10:51;;;;;;;8.00;7.20;;;;;;;;;;5051806;28;20481;-61
2022/01/24 03:15:54;;;;;;;7.53;6.73;;;;;;;;;;5051625;28;20813;-62
2022/01/24 03:18:20;;;;;;;8.77;7.87;;;;;;;;;;5051826;28;20962;-62
2022/01/24 03:20:46;;;;;;;7.43;6.73;;;;;;;;;;5051927;28;20438;-62
2022/01/24 03:23:12;;;;;;;8.33;7.47;;;;;;;;;;5051821;28;20435;-64
2022/01/24 03:25:38;;;;;;;7.60;6.90;;;;;;;;;;5052906;28;20495;-62
2022/01/24 03:28:06;;;;;;;7.57;6.87;;;;;;;;;;5055720;28;20835;-63
2022/01/24 03:30:32;;;;;;;7.67;6.93;;;;;;;;;;5055582;28;20232;-63
2022/01/24 03:32:59;;;;;;;7.10;6.40;;;;;;;;;;5055700;28;20423;-62
2022/01/24 03:35:25;;;;;;;7.93;6.97;;;;;;;;;;5055373;28;20516;-62
2022/01/24 03:37:51;;;;;;;7.00;6.40;;;;;;;;;;5055610;28;20923;-62
2022/01/24 03:40:17;;;;;;;8.00;7.23;;;;;;;;;;5055518;28;20203;-63
2022/01/24 03:42:46;;;;;;;7.27;6.57;;;;;;;;;;5055594;28;20234;-64
2022/01/24 03:45:15;;;;;;;7.93;7.13;;;;;;;;;;5055347;28;20439;-62
2022/01/24 03:47:55;;;;;;;8.07;6.50;;;;;;;;;;5055570;28;20439;-63
2022/01/24 03:50:21;;;;;;;7.47;6.77;;;;;;;;;;5055092;28;20220;-63
2022/01/24 03:52:47;;;;;;;8.90;7.03;;;;;;;;;;5055133;28;20443;-62
2022/01/24 03:55:13;;;;;;;9.37;7.30;;;;;;;;;;5055211;28;20446;-62
2022/01/24 03:57:40;;;;;;;8.57;7.23;;;;;;;;;;5055190;28;20430;-62
2022/01/24 04:00:07;;;;;;;7.87;7.10;;;;;;;;;;5055192;28;20433;-62
2022/01/24 04:02:35;;;;;;;7.50;6.77;;;;;;;;;;5054990;28;20462;-63
2022/01/24 04:05:01;;;;;;;8.00;7.20;;;;;;;;;;5054846;28;20466;-62
2022/01/24 04:07:27;;;;;;;8.43;7.20;;;;;;;;;;5054936;28;20257;-62
2022/01/24 04:09:53;;;;;;;7.87;7.17;;;;;;;;;;5054805;28;20835;-63
2022/01/24 04:12:24;;;;;;;7.20;6.50;;;;;;;;;;5054679;28;20263;-62
2022/01/24 04:22:20;;;;;;;7.40;6.60;;;;;;;;;;5054747;28;20288;-62
2022/01/24 04:24:47;;;;;;;8.10;6.97;;;;;;;;;;5054772;28;20450;-63
2022/01/24 04:27:14;;;;;;;7.43;6.60;;;;;;;;;;5054669;28;20435;-62
2022/01/24 04:29:40;;;;;;;7.90;7.13;;;;;;;;;;5054505;28;21023;-63
2022/01/24 04:32:06;;;;;;;8.80;6.70;;;;;;;;;;5054484;28;20535;-62
2022/01/24 04:34:32;;;;;;;7.03;6.33;;;;;;;;;;5054538;28;20203;-62
2022/01/24 04:37:01;;;;;;;8.03;6.97;;;;;;;;;;5053865;28;20774;-62
2022/01/24 04:39:27;;;;;;;8.63;7.77;;;;;;;;;;5054333;28;20542;-64
2022/01/24 04:41:56;;;;;;;9.33;8.33;;;;;;;;;;5054416;28;20529;-62
2022/01/24 04:47:23;;;;;;;8.40;7.60;;;;;;;;;;5054282;28;20481;-62
2022/01/24 04:55:01;;;;;;;9.27;8.20;;;;;;;;;;5053979;28;20831;-62
2022/01/24 04:57:29;;;;;;;9.83;8.83;;;;;;;;;;5036188;28;20500;-63
2022/01/24 04:59:56;;;;;;;9.87;7.90;;;;;;;;;;5054096;28;20189;-62
2022/01/24 05:02:23;;;;;;;8.90;7.93;;;;;;;;;;5054016;28;20454;-62
2022/01/24 05:04:49;;;;;;;8.47;7.60;;;;;;;;;;5053871;28;20496;-63
2022/01/24 05:07:15;;;;;;;8.63;7.27;;;;;;;;;;5053872;28;20903;-63
2022/01/24 05:09:50;;;;;;;8.17;7.37;;;;;;;;;;5053774;28;20510;-62
2022/01/24 05:12:34;;;;;;;8.57;7.37;;;;;;;;;;5053640;28;20494;-62
2022/01/24 05:26:11;;;;;;;9.20;7.73;;;;;;;;;;5040350;28;20477;-63
2022/01/24 05:28:38;;;;;;;8.97;7.97;;;;;;;;;;5053464;28;20533;-63
2022/01/24 05:31:04;;;;;;;8.43;7.57;;;;;;;;;;5053322;28;20566;-63
2022/01/24 05:33:30;;;;;;;8.47;7.57;;;;;;;;;;5053373;28;20957;-63
2022/01/24 05:35:56;;;;;;;8.27;7.50;;;;;;;;;;5053368;28;20446;-62
2022/01/24 05:38:22;;;;;;;8.87;8.07;;;;;;;;;;5053192;28;20969;-62
2022/01/24 05:40:49;;;;;;;9.10;8.20;;;;;;;;;;5053130;28;20192;-61
2022/01/24 05:43:17;;;;;;;9.03;8.13;;;;;;;;;;5053183;28;20794;-62
2022/01/24 05:45:43;;;;;;;8.53;7.47;;;;;;;;;;5053365;28;20526;-62
2022/01/24 05:48:09;;;;;;;10.57;8.17;;;;;;;;;;5052854;28;20907;-63
2022/01/24 05:50:35;;;;;;;8.27;7.47;;;;;;;;;;5052984;28;20975;-62
2022/01/24 05:53:01;;;;;;;9.53;8.60;;;;;;;;;;5053185;28;20419;-63
2022/01/24 05:55:27;;;;;;;8.87;7.97;;;;;;;;;;5053495;28;20601;-63
2022/01/24 05:57:53;;;;;;;9.90;8.90;;;;;;;;;;5053143;28;20211;-63
2022/01/24 06:00:22;;;;;;;8.67;7.77;;;;;;;;;;5052764;28;20435;-63
2022/01/24 06:02:48;;;;;;;8.90;8.00;;;;;;;;;;5052744;28;20473;-63
2022/01/24 06:05:14;;;;;;;10.83;8.43;;;;;;;;;;5052753;28;20810;-63
2022/01/24 06:07:40;;;;;;;8.57;7.77;;;;;;;;;;5052780;28;20941;-63
2022/01/24 06:10:07;;;;;;;9.17;8.27;;;;;;;;;;5052492;28;20484;-63
2022/01/24 06:12:33;;;;;;;8.87;7.97;;;;;;;;;;5052500;28;20482;-62
2022/01/24 06:14:59;;;;;;;9.17;8.23;;;;;;;;;;5052348;28;20441;-62
2022/01/24 06:17:26;;;;;;;8.43;7.63;;;;;;;;;;5052393;28;20994;-62
2022/01/24 06:19:52;;;;;;;8.87;7.97;;;;;;;;;;5052283;28;20446;-62
2022/01/24 06:22:20;;;;;;;9.80;8.80;;;;;;;;;;5052357;28;20461;-62
2022/01/24 06:24:46;;;;;;;9.43;8.33;;;;;;;;;;5052448;28;20200;-63
2022/01/24 06:27:12;;;;;;;9.57;8.67;;;;;;;;;;5052568;28;20535;-62
2022/01/24 06:29:38;;;;;;;11.83;9.40;;;;;;;;;;5052598;28;20232;-62
2022/01/24 06:32:05;;;;;;;9.03;8.13;;;;;;;;;;5052396;28;20442;-62
2022/01/24 06:34:32;;;;;;;8.50;7.70;;;;;;;;;;5052563;28;20496;-63
2022/01/24 06:36:58;;;;;;;9.57;8.57;;;;;;;;;;5052244;28;20953;-62
2022/01/24 06:39:25;;;;;;;9.07;8.13;;;;;;;;;;5052078;28;20450;-62
2022/01/24 06:42:21;;;;;;;9.53;8.63;;;;;;;;;;5052267;28;20493;-62
2022/01/24 06:44:37;;;;;;;9.90;8.23;;;;;;;;;;5051476;28;20451;-62
2022/01/24 06:47:04;;;;;;;8.80;7.90;;;;;;;;;;5052127;28;20977;-63
2022/01/24 06:49:31;;;;;;;9.80;8.80;;;;;;;;;;5052075;28;20504;-61
2022/01/24 06:51:58;;;;;;;9.77;8.57;;;;;;;;;;5052413;28;20442;-62
2022/01/24 06:54:24;;;;;;;9.57;8.67;;;;;;;;;;5052260;28;20963;-62
2022/01/24 06:56:50;;;;;;;10.70;9.57;;;;;;;;;;5052246;28;20481;-62
2022/01/24 06:59:16;;;;;;;9.50;8.60;;;;;;;;;;5052074;28;20597;-61
2022/01/24 07:01:42;;;;;;;9.67;8.70;;;;;;;;;;5054834;28;20434;-61
2022/01/24 07:04:08;;;;;;;9.63;8.73;;;;;;;;;;5056019;28;20459;-61
2022/01/24 07:06:34;;;;;;;9.17;8.27;;;;;;;;;;5056278;28;20474;-62
2022/01/24 07:09:03;;;;;;;10.30;9.20;;;;;;;;;;5056227;28;20469;-62
2022/01/24 07:11:29;;;;;;;9.53;8.53;;;;;;;;;;5055543;28;20490;-63
2022/01/24 07:13:55;;;;;;;11.20;9.37;;;;;;;;;;5056087;28;20430;-62
2022/01/24 07:16:21;;;;;;;9.57;8.57;;;;;;;;;;5055903;28;20200;-62
2022/01/24 07:19:03;;;;;;;10.33;9.17;;;;;;;;;;5055859;28;20253;-63
2022/01/24 07:21:29;;;;;;;14.60;10.77;;;;;;;;;;5056043;28;20434;-62
2022/01/24 07:23:55;;;;;;;12.67;10.50;;;;;;;;;;5055928;28;20477;-63
2022/01/24 07:26:22;;;;;;;10.97;9.87;;;;;;;;;;5055668;28;20291;-63
2022/01/24 07:28:48;;;;;;;12.93;9.77;;;;;;;;;;5055479;28;20442;-63
2022/01/24 07:31:14;;;;;;;11.07;9.87;;;;;;;;;;5055524;28;20482;-63
2022/01/24 07:33:40;;;;;;;11.40;10.30;;;;;;;;;;5055447;28;20810;-63
2022/01/24 07:36:07;;;;;;;13.10;10.57;;;;;;;;;;5055909;28;20200;-62
2022/01/24 07:38:33;;;;;;;11.13;9.87;;;;;;;;;;5055574;28;20435;-61
2022/01/24 07:41:00;;;;;;;11.93;9.67;;;;;;;;;;5055458;28;20976;-62
2022/01/24 07:43:28;;;;;;;11.50;9.73;;;;;;;;;;5055263;28;20197;-62
2022/01/24 07:45:54;;;;;;;11.97;10.40;;;;;;;;;;5055491;28;20207;-62
2022/01/24 07:48:20;;;;;;;10.87;9.70;;;;;;;;;;5055194;28;20430;-62
2022/01/24 07:50:47;;;;;;;11.03;9.87;;;;;;;;;;5055255;28;20602;-62
2022/01/24 07:53:13;;;;;;;11.50;10.30;;;;;;;;;;5055174;28;20435;-62
2022/01/24 07:55:40;;;;;;;12.17;10.47;;;;;;;;;;5055422;28;20484;-62
2022/01/24 07:58:07;;;;;;;11.77;10.57;;;;;;;;;;5055088;28;20458;-62
2022/01/24 08:00:35;;;;;;;11.50;10.40;;;;;;;;;;5054950;28;20470;-63
2022/01/24 08:03:01;;;;;;;11.17;10.00;;;;;;;;;;5055079;28;20462;-63
2022/01/24 08:05:27;;;;;;;10.17;9.10;;;;;;;;;;5054954;28;20454;-62
2022/01/24 08:07:54;;;;;;;12.40;10.80;;;;;;;;;;5055126;28;20469;-61
2022/01/24 08:10:20;;;;;;;10.33;9.23;;;;;;;;;;5054700;28;20235;-61
2022/01/24 08:12:46;;;;;;;11.33;9.90;;;;;;;;;;5054457;28;20240;-62
2022/01/24 08:15:14;;;;;;;11.27;10.07;;;;;;;;;;5054711;28;20801;-62
2022/01/24 08:17:42;;;;;;;11.30;10.10;;;;;;;;;;5054951;28;20207;-61
2022/01/24 08:20:08;;;;;;;10.67;9.60;;;;;;;;;;5054911;28;20435;-61
2022/01/24 08:22:35;;;;;;;10.37;9.27;;;;;;;;;;5054668;28;20434;-61
2022/01/24 08:25:04;;;;;;;11.27;10.07;;;;;;;;;;5054629;28;20492;-63
2022/01/24 08:27:30;;;;;;;10.57;9.33;;;;;;;;;;5055030;28;20208;-62
2022/01/24 08:29:56;;;;;;;11.03;9.47;;;;;;;;;;5054834;28;20915;-63
2022/01/24 08:32:22;;;;;;;11.73;9.73;;;;;;;;;;5054605;28;20446;-63
2022/01/24 08:34:50;;;;;;;10.30;9.20;;;;;;;;;;5054441;28;20207;-62
2022/01/24 08:37:16;;;;;;;10.80;9.80;;;;;;;;;;5054422;28;20859;-63
2022/01/24 08:39:43;;;;;;;11.37;10.27;;;;;;;;;;5054631;28;20705;-62
2022/01/24 08:42:21;;;;;;;13.07;10.70;;;;;;;;;;5054528;28;20422;-63
2022/01/24 08:47:23;;;;;;;10.33;9.27;;;;;;;;;;5054259;28;20188;-62
2022/01/24 08:49:51;;;;;;;10.57;9.53;;;;;;;;;;5054056;28;20864;-62
2022/01/24 08:52:17;;;;;;;10.97;9.87;;;;;;;;;;5054310;28;20477;-63
2022/01/24 08:54:43;;;;;;;12.13;10.93;;;;;;;;;;5054359;28;20443;-62
2022/01/24 08:57:09;;;;;;;13.83;11.60;;;;;;;;;;5054379;28;20203;-63
2022/01/24 08:59:38;;;;;;;12.70;10.23;;;;;;;;;;5054005;28;20911;-63
2022/01/24 09:02:04;;;;;;;11.20;10.00;;;;;;;;;;5053723;28;20800;-62
2022/01/24 09:04:30;;;;;;;11.43;9.60;;;;;;;;;;5053795;28;20486;-63
2022/01/24 09:07:02;;;;;;;10.60;9.60;;;;;;;;;;5053904;28;20840;-62
2022/01/24 09:09:28;;;;;;;10.50;9.40;;;;;;;;;;5054074;28;20450;-62
2022/01/24 09:11:55;;;;;;;11.50;10.30;;;;;;;;;;5053768;28;20824;-63
2022/01/24 09:14:21;;;;;;;12.63;10.97;;;;;;;;;;5053554;28;20431;-61
2022/01/24 09:16:47;;;;;;;11.87;10.37;;;;;;;;;;5053601;28;20443;-61
2022/01/24 09:19:13;;;;;;;12.27;10.33;;;;;;;;;;5053560;28;20200;-67
2022/01/24 09:21:39;;;;;;;11.57;10.37;;;;;;;;;;5053479;28;20438;-69
2022/01/24 09:24:07;;;;;;;11.10;9.70;;;;;;;;;;5053011;28;20447;-62
2022/01/24 09:26:33;;;;;;;11.53;10.40;;;;;;;;;;5053282;28;20204;-62
2022/01/24 09:29:00;;;;;;;12.33;10.73;;;;;;;;;;5053363;28;20442;-64
2022/01/24 09:31:26;;;;;;;10.90;9.80;;;;;;;;;;5052957;28;20482;-58
2022/01/24 09:33:53;;;;;;;11.60;10.40;;;;;;;;;;5053090;28;20443;-58
2022/01/24 09:36:19;;;;;;;9.30;8.40;;;;;;;;;;5053012;28;20439;-58
2022/01/24 09:38:45;;;;;;;10.17;8.67;;;;;;;;;;5053112;28;20927;-58
2022/01/24 09:41:13;;;;;;;9.97;8.97;;;;;;;;;;5053248;28;20462;-59
2022/01/24 09:43:39;;;;;;;9.30;8.33;;;;;;;;;;5047264;28;20221;-68
2022/01/24 09:46:08;;;;;;;11.03;9.37;;;;;;;;;;5051796;28;20466;-69
2022/01/24 09:48:34;;;;;;;10.27;9.30;;;;;;;;;;5052552;28;20446;-69
2022/01/24 09:51:00;;;;;;;10.37;9.37;;;;;;;;;;5053018;28;20566;-70
2022/01/24 09:53:27;;;;;;;10.33;9.07;;;;;;;;;;5053021;28;20438;-69
2022/01/24 09:55:53;;;;;;;10.13;9.13;;;;;;;;;;5052888;28;20482;-68
2022/01/24 09:58:21;;;;;;;9.40;8.50;;;;;;;;;;5052743;28;20445;-68
2022/01/24 10:00:47;;;;;;;10.23;9.23;;;;;;;;;;5053045;28;20257;-67
2022/01/24 10:03:14;;;;;;;10.17;9.00;;;;;;;;;;5052569;28;20898;-69
2022/01/24 10:05:42;;;;;;;10.30;8.93;;;;;;;;;;5052709;28;20996;-68
2022/01/24 10:08:12;;;;;;;9.23;8.13;;;;;;;;;;5052553;28;21048;-68
2022/01/24 10:10:44;;;;;;;9.30;8.30;;;;;;;;;;5053022;28;20491;-68
2022/01/24 10:18:59;;;;;;;8.80;7.90;;;;;;;;;;5052580;28;20822;-63
2022/01/24 10:21:25;;;;;;;9.50;8.60;;;;;;;;;;5052446;28;20645;-62
2022/01/24 10:23:51;;;;;;;8.70;7.80;;;;;;;;;;5050472;28;20651;-61
2022/01/24 10:26:18;;;;;;;8.27;7.47;;;;;;;;;;5052358;28;20231;-62
2022/01/24 10:28:45;;;;;;;8.77;7.97;;;;;;;;;;5052535;28;20711;-62
2022/01/24 10:31:16;;;;;;;9.77;8.87;;;;;;;;;;5052431;28;20865;-62
2022/01/24 10:33:59;;;;;;;9.80;8.90;;;;;;;;;;5052996;28;20204;-63
2022/01/24 10:36:32;;;;;;;9.67;8.77;;;;;;;;;;5051706;28;20443;-63
2022/01/24 10:39:07;;;;;;;8.17;7.27;;;;;;;;;;5052810;28;20453;-61
2022/01/24 10:44:27;;;;;;;9.17;8.37;;;;;;;;;;5052289;28;20418;-63
2022/01/24 10:47:09;;;;;;;9.10;8.20;;;;;;;;;;5052330;28;20442;-64
2022/01/24 10:49:36;;;;;;;8.50;7.70;;;;;;;;;;5052099;28;20204;-63
2022/01/24 10:52:09;;;;;;;10.03;9.03;;;;;;;;;;5052178;28;20835;-62
2022/01/24 10:54:35;;;;;;;9.60;8.70;;;;;;;;;;5052132;28;20435;-62
2022/01/24 10:57:01;;;;;;;9.70;8.77;;;;;;;;;;5052225;28;20196;-63
2022/01/24 10:59:27;;;;;;;10.47;9.37;;;;;;;;;;5052270;28;20499;-63
2022/01/24 11:01:56;;;;;;;9.23;8.43;;;;;;;;;;5052398;28;20202;-62
2022/01/24 11:04:26;;;;;;;9.73;8.83;;;;;;;;;;5051865;28;20227;-64
2022/01/24 11:06:54;;;;;;;9.53;8.70;;;;;;;;;;5052115;28;21016;-62
2022/01/24 11:09:24;;;;;;;9.13;8.27;;;;;;;;;;5051972;28;20430;-63
2022/01/24 11:11:51;;;;;;;9.20;8.30;;;;;;;;;;5051732;28;21012;-63
2022/01/24 11:14:19;;;;;;;9.20;8.40;;;;;;;;;;5051975;28;20442;-64
2022/01/24 11:16:46;;;;;;;9.37;8.47;;;;;;;;;;5050284;28;20454;-69
2022/01/24 11:19:26;;;;;;;9.23;8.43;;;;;;;;;;5046826;28;20508;-69
2022/01/24 11:21:53;;;;;;;9.93;9.03;;;;;;;;;;5052002;28;20576;-67
2022/01/24 11:24:27;;;;;;;11.40;10.30;;;;;;;;;;5051946;28;20435;-67
2022/01/24 11:26:53;;;;;;;10.53;9.53;;;;;;;;;;5052027;28;20435;-68
2022/01/24 11:29:20;;;;;;;9.97;9.07;;;;;;;;;;5050023;28;20453;-67
2022/01/24 11:31:49;;;;;;;9.57;8.70;;;;;;;;;;5049420;28;20227;-67
2022/01/24 11:34:30;;;;;;;9.87;8.87;;;;;;;;;;5033877;28;20832;-70
2022/01/24 11:36:56;;;;;;;9.47;8.57;;;;;;;;;;5051722;28;20472;-65
2022/01/24 11:39:22;;;;;;;9.73;8.83;;;;;;;;;;5051439;28;20453;-69
2022/01/24 11:41:48;;;;;;;10.67;9.57;;;;;;;;;;5051912;28;20280;-67
2022/01/24 11:44:20;;;;;;;9.07;8.27;;;;;;;;;;5051592;28;20922;-67
2022/01/24 11:46:52;;;;;;;9.57;8.70;;;;;;;;;;5053049;28;20201;-67
2022/01/24 11:49:20;;;;;;;9.40;8.60;;;;;;;;;;5055205;28;20422;-67
2022/01/24 11:51:47;;;;;;;10.47;9.57;;;;;;;;;;5055290;28;20527;-68
2022/01/24 11:54:31;;;;;;;10.33;9.23;;;;;;;;;;5055128;28;20710;-66
2022/01/24 11:57:12;;;;;;;10.13;9.20;;;;;;;;;;5055470;28;20637;-67
2022/01/24 11:59:38;;;;;;;10.03;9.03;;;;;;;;;;5055108;28;20438;-67
2022/01/24 12:02:08;;;;;;;9.97;9.00;;;;;;;;;;5053309;28;20422;-67
2022/01/24 12:04:51;;;;;;;9.60;8.67;;;;;;;;;;5054718;28;20455;-69
2022/01/24 12:07:19;;;;;;;10.70;8.67;;;;;;;;;;5054943;28;20236;-67
2022/01/24 12:09:45;;;;;;;8.80;7.90;;;;;;;;;;5054834;28;20874;-69
2022/01/24 12:12:34;;;;;;;8.50;7.70;;;;;;;;;;5054666;28;20246;-65
2022/01/24 12:15:00;;;;;;;8.67;7.87;;;;;;;;;;5054860;28;20407;-69
2022/01/24 12:17:41;;;;;;;8.73;7.93;;;;;;;;;;5054505;28;20196;-64
2022/01/24 12:20:22;;;;;;;9.07;8.17;;;;;;;;;;5054508;28;20258;-66
2022/01/24 12:22:49;;;;;;;9.40;8.50;;;;;;;;;;5053547;28;20828;-69
2022/01/24 12:25:16;;;;;;;8.77;7.90;;;;;;;;;;5054512;28;20208;-66
2022/01/24 12:27:57;;;;;;;8.37;7.50;;;;;;;;;;5054813;28;20457;-71
2022/01/24 12:30:54;;;;;;;9.23;8.33;;;;;;;;;;5053473;28;20901;-66
2022/01/24 12:33:28;;;;;;;8.53;7.73;;;;;;;;;;5054175;28;20998;-67
2022/01/24 12:35:54;;;;;;;7.57;6.87;;;;;;;;;;5054707;28;20287;-67
2022/01/24 12:38:21;;;;;;;8.00;7.20;;;;;;;;;;5054369;28;20888;-67
2022/01/24 12:40:48;;;;;;;8.23;7.43;;;;;;;;;;5054432;28;20205;-66
2022/01/24 12:43:29;;;;;;;6.97;6.27;;;;;;;;;;5054499;28;20204;-68
2022/01/24 12:48:40;;;;;;;7.53;6.77;;;;;;;;;;5054497;28;20419;-68
2022/01/24 12:51:07;;;;;;;6.63;6.03;;;;;;;;;;5054454;28;20475;-66
2022/01/24 12:53:39;;;;;;;11.77;6.50;;;;;;;;;;5053979;28;20204;-67
2022/01/24 12:56:07;;;;;;;6.60;6.00;;;;;;;;;;5054331;28;20781;-65
2022/01/24 12:58:34;;;;;;;7.77;6.97;;;;;;;;;;5053169;28;20443;-66
2022/01/24 13:01:00;;;;;;;7.30;6.70;;;;;;;;;;5052254;28;20596;-62
2022/01/24 13:03:26;;;;;;;7.53;6.53;;;;;;;;;;5053680;28;20216;-60
2022/01/24 13:05:52;;;;;;;7.00;6.40;;;;;;;;;;5053925;28;20435;-61
2022/01/24 13:08:18;;;;;;;7.50;6.80;;;;;;;;;;5053744;28;20254;-61
2022/01/24 13:10:48;;;;;;;6.57;5.97;;;;;;;;;;5053627;28;20247;-59
2022/01/24 13:13:15;;;;;;;6.97;6.37;;;;;;;;;;5053923;28;20234;-61
2022/01/24 13:21:17;;;;;;;7.23;6.57;;;;;;;;;;5053685;28;20195;-62
2022/01/24 13:23:50;;;;;;;7.13;6.53;;;;;;;;;;5053483;28;21003;-62
2022/01/24 13:26:17;;;;;;;6.67;6.07;;;;;;;;;;5053612;28;20258;-61
2022/01/24 13:28:43;;;;;;;8.93;6.57;;;;;;;;;;5051906;28;20496;-61
2022/01/24 13:31:09;;;;;;;7.67;6.97;;;;;;;;;;5053315;28;20478;-62
2022/01/24 13:33:38;;;;;;;6.60;5.90;;;;;;;;;;5053252;28;20204;-60
2022/01/24 13:36:06;;;;;;;7.47;6.77;;;;;;;;;;5051330;28;20439;-63
2022/01/24 13:38:33;;;;;;;6.77;6.17;;;;;;;;;;5052825;28;20200;-64
2022/01/24 13:41:03;;;;;;;6.70;6.10;;;;;;;;;;5053123;28;20535;-61
2022/01/24 13:43:34;;;;;;;6.97;6.37;;;;;;;;;;5052995;28;20228;-63
2022/01/24 13:46:01;;;;;;;8.83;5.83;;;;;;;;;;5052803;28;20450;-62
2022/01/24 13:48:27;;;;;;;6.10;5.50;;;;;;;;;;5052694;28;20987;-62
2022/01/24 13:50:54;;;;;;;6.70;6.00;;;;;;;;;;5052853;28;20471;-63
2022/01/24 13:53:30;;;;;;;7.10;5.70;;;;;;;;;;5052686;28;20803;-62
2022/01/24 13:55:58;;;;;;;6.60;6.00;;;;;;;;;;5052860;28;20426;-63
2022/01/24 13:58:24;;;;;;;7.00;6.37;;;;;;;;;;5052625;28;20438;-62
2022/01/24 14:00:57;;;;;;;6.80;6.20;;;;;;;;;;5052724;28;20473;-60
2022/01/24 14:03:23;;;;;;;6.80;6.20;;;;;;;;;;5034693;28;20455;-62
2022/01/24 14:05:49;;;;;;;7.23;6.57;;;;;;;;;;5052953;28;20438;-62
2022/01/24 14:08:16;;;;;;;7.57;6.87;;;;;;;;;;5052656;28;20196;-61
2022/01/24 14:10:42;;;;;;;6.93;6.33;;;;;;;;;;5052191;28;20475;-61
2022/01/24 14:13:09;;;;;;;7.67;6.90;;;;;;;;;;5052625;28;20434;-61
2022/01/24 14:15:56;;;;;;;7.33;6.63;;;;;;;;;;5052098;28;20426;-63
2022/01/24 14:18:31;;;;;;;7.07;6.47;;;;;;;;;;5052346;28;20438;-61
2022/01/24 14:21:09;;;;;;;6.23;5.60;;;;;;;;;;5052383;28;20860;-61
2022/01/24 14:23:37;;;;;;;7.77;5.93;;;;;;;;;;5052121;28;20450;-60
2022/01/24 14:26:12;;;;;;;7.10;6.43;;;;;;;;;;5052249;28;20786;-62
2022/01/24 14:28:38;;;;;;;9.37;6.27;;;;;;;;;;5052537;28;20493;-60
2022/01/24 14:31:06;;;;;;;7.43;6.73;;;;;;;;;;5052110;28;20505;-62
2022/01/24 14:33:34;;;;;;;7.07;6.40;;;;;;;;;;5052060;28;20325;-61
2022/01/24 14:36:01;;;;;;;6.93;6.23;;;;;;;;;;5052243;28;20455;-63
2022/01/24 14:38:29;;;;;;;7.60;6.90;;;;;;;;;;5052116;28;20439;-62
2022/01/24 14:40:58;;;;;;;7.10;6.43;;;;;;;;;;5052077;28;20837;-61
2022/01/24 14:46:11;;;;;;;6.73;6.10;;;;;;;;;;5052239;28;20503;-61
2022/01/24 14:48:50;;;;;;;7.23;6.53;;;;;;;;;;5051841;28;20450;-61
2022/01/24 14:51:17;;;;;;;7.17;6.47;;;;;;;;;;5052099;28;20482;-61
2022/01/24 14:53:43;;;;;;;8.10;6.80;;;;;;;;;;5051953;28;20930;-61
2022/01/24 14:56:11;;;;;;;7.20;6.50;;;;;;;;;;5051915;28;20900;-62
2022/01/24 14:58:37;;;;;;;8.10;7.13;;;;;;;;;;5051685;28;21027;-62
2022/01/24 15:01:06;;;;;;;8.13;7.33;;;;;;;;;;5051841;28;20526;-61
2022/01/24 15:03:32;;;;;;;8.30;6.73;;;;;;;;;;5051495;28;20216;-62
2022/01/24 15:06:00;;;;;;;6.87;6.27;;;;;;;;;;5052182;28;20441;-61
2022/01/24 15:08:27;;;;;;;7.27;6.57;;;;;;;;;;5051714;28;20443;-61
2022/01/24 15:10:53;;;;;;;7.40;6.70;;;;;;;;;;5051503;28;20986;-62
2022/01/24 15:13:24;;;;;;;7.43;6.70;;;;;;;;;;5052077;28;20450;-61
2022/01/24 15:16:12;;;;;;;6.63;5.97;;;;;;;;;;5051635;28;20497;-59
2022/01/24 15:26:44;;;;;;;7.47;6.77;;;;;;;;;;5055761;28;20456;-61
2022/01/24 15:29:10;;;;;;;7.23;6.63;;;;;;;;;;5054494;28;20772;-60
2022/01/24 15:31:36;;;;;;;7.83;7.13;;;;;;;;;;5055248;28;20601;-60
2022/01/24 15:34:03;;;;;;;8.23;7.43;;;;;;;;;;5055423;28;20211;-61
2022/01/24 15:36:30;;;;;;;8.90;8.10;;;;;;;;;;5055441;28;20234;-60
2022/01/24 15:38:59;;;;;;;8.70;8.00;;;;;;;;;;5055438;28;20450;-60
2022/01/24 15:41:25;;;;;;;10.50;7.97;;;;;;;;;;5055208;28;20939;-60
2022/01/24 15:48:43;;;;;;;9.03;8.20;;;;;;;;;;5055132;28;20219;-61
2022/01/24 15:51:12;;;;;;;9.13;8.30;;;;;;;;;;5055025;28;20818;-61
2022/01/24 15:53:39;;;;;;;9.93;8.93;;;;;;;;;;5055065;28;20212;-61
2022/01/24 15:56:15;;;;;;;9.90;8.90;;;;;;;;;;5055124;28;20542;-62
2022/01/24 15:58:41;;;;;;;13.07;9.37;;;;;;;;;;5054953;28;20443;-61
2022/01/24 16:01:07;;;;;;;9.03;8.13;;;;;;;;;;5054964;28;20441;-60
2022/01/24 16:03:33;;;;;;;9.17;8.27;;;;;;;;;;5054594;28;20530;-61
2022/01/24 16:05:59;;;;;;;10.13;8.50;;;;;;;;;;5054955;28;20541;-61
2022/01/24 16:08:25;;;;;;;9.30;8.40;;;;;;;;;;5054826;28;20266;-61
2022/01/24 16:10:53;;;;;;;9.30;8.40;;;;;;;;;;5054533;28;21045;-61
2022/01/24 16:13:21;;;;;;;11.93;9.23;;;;;;;;;;5054642;28;20296;-61
2022/01/24 16:15:47;;;;;;;9.73;8.50;;;;;;;;;;5054737;28;20443;-60
2022/01/24 16:18:16;;;;;;;9.00;8.10;;;;;;;;;;5054637;28;20438;-61
2022/01/24 16:25:44;;;;;;;9.00;7.93;;;;;;;;;;5054555;28;20435;-61
2022/01/24 16:28:13;;;;;;;9.13;8.23;;;;;;;;;;5054619;28;20431;-61
2022/01/24 16:30:41;;;;;;;10.30;8.87;;;;;;;;;;5054459;28;20447;-61
2022/01/24 16:33:08;;;;;;;8.80;7.97;;;;;;;;;;5054213;28;20790;-63
2022/01/24 16:35:35;;;;;;;9.23;7.57;;;;;;;;;;5054156;28;20477;-61
2022/01/24 16:38:01;;;;;;;8.90;7.90;;;;;;;;;;5054295;28;20461;-61
2022/01/24 16:40:38;;;;;;;8.73;7.87;;;;;;;;;;5054155;28;20463;-62
2022/01/24 16:48:54;;;;;;;9.07;8.17;;;;;;;;;;5048662;28;20438;-61
2022/01/24 16:51:20;;;;;;;10.20;9.10;;;;;;;;;;5053848;28;20496;-61